Time;durP1;ratioP1;P1;durP2;ratioP2;P2;SDS_P1;SDS_P2;PMS_P1;PMS_P2;Temp;Humidity;BMP_temperature;BMP_pressure;BME280_temperature;BME280_humidity;BME280_pressure;Samples;Min_cycle;Max_cycle;Signal;HPM_P1;HPM_P2
2021/01/22 00:00:25;;;;;;;;;;;;;;;16.77;38.90;97475.12;4400747;32;20006;-51
2021/01/22 00:02:51;;;;;;;;;;;;;;;16.76;38.90;97462.00;4401399;32;20002;-50
2021/01/22 00:05:17;;;;;;;;;;;;;;;16.76;38.89;97468.16;4396740;32;19962;-51
2021/01/22 00:07:43;;;;;;;;;;;;;;;16.78;38.86;97461.09;4389415;32;20009;-51
2021/01/22 00:10:09;;;;;;;;;;;;;;;16.79;38.82;97464.56;4408186;32;20323;-46
2021/01/22 00:12:34;;;;;;;;;;;;;;;16.79;38.83;97461.94;4402091;32;19974;-48
2021/01/22 00:15:00;;;;;;;;;;;;;;;16.78;38.93;97462.84;4401137;32;20339;-48
2021/01/22 00:17:26;;;;;;;;;;;;;;;16.78;38.90;97450.56;4401477;32;20009;-49
2021/01/22 00:19:52;;;;;;;;;;;;;;;16.73;39.03;97436.69;4401100;32;19984;-49
2021/01/22 00:22:18;;;;;;;;;;;;;;;16.76;38.89;97436.59;4401440;32;20248;-50
2021/01/22 00:24:44;;;;;;;;;;;;;;;16.75;38.99;97444.50;4401537;32;19950;-50
2021/01/22 00:27:10;;;;;;;;;;;;;;;16.75;39.14;97450.66;4401371;32;19947;-49
2021/01/22 00:29:35;;;;;;;;;;;;;;;16.75;39.20;97444.50;4400866;32;20325;-48
2021/01/22 00:32:01;;;;;;;;;;;;;;;16.73;39.26;97431.41;4400827;32;20014;-49
2021/01/22 00:34:27;;;;;;;;;;;;;;;16.75;39.03;97429.62;4401249;32;20039;-47
2021/01/22 00:36:53;;;;;;;;;;;;;;;16.82;38.98;97428.59;4393187;32;19970;-54
2021/01/22 00:39:19;;;;;;;;;;;;;;;16.84;38.89;97425.94;4397805;32;19988;-50
2021/01/22 00:41:45;;;;;;;;;;;;;;;16.84;38.98;97418.06;4397353;32;19955;-49
2021/01/22 00:44:11;;;;;;;;;;;;;;;16.77;39.10;97417.31;4390286;32;19950;-49
2021/01/22 00:46:37;;;;;;;;;;;;;;;16.76;39.11;97410.31;4399111;32;19951;-48
2021/01/22 00:49:03;;;;;;;;;;;;;;;16.77;39.06;97406.81;4395822;32;20020;-48
2021/01/22 00:51:29;;;;;;;;;;;;;;;16.74;39.07;97391.09;4397306;32;20382;-48
2021/01/22 00:53:55;;;;;;;;;;;;;;;16.76;39.05;97394.56;4397764;32;20024;-47
2021/01/22 00:56:21;;;;;;;;;;;;;;;16.76;39.12;97393.69;4399585;32;19954;-48
2021/01/22 00:58:46;;;;;;;;;;;;;;;16.80;38.87;97396.22;4397030;32;19951;-49
2021/01/22 01:01:12;;;;;;;;;;;;;;;16.76;39.10;97394.56;4396547;32;19964;-48
2021/01/22 01:03:38;;;;;;;;;;;;;;;16.78;39.10;97387.50;4396284;32;19951;-46
2021/01/22 01:06:04;;;;;;;;;;;;;;;16.78;39.01;97398.00;4397821;32;19990;-51
2021/01/22 01:08:30;;;;;;;;;;;;;;;16.76;39.07;97394.56;4395453;32;20312;-47
2021/01/22 01:10:56;;;;;;;;;;;;;;;16.78;39.06;97407.66;4397571;32;19938;-46
2021/01/22 01:13:22;;;;;;;;;;;;;;;16.78;39.05;97395.37;4396559;32;20322;-52
2021/01/22 01:15:48;;;;;;;;;;;;;;;16.78;39.01;97405.91;4398003;32;19955;-50
2021/01/22 01:18:14;;;;;;;;;;;;;;;16.80;38.99;97395.37;4397190;32;19951;-47
2021/01/22 01:20:39;;;;;;;;;;;;;;;16.81;39.15;97395.31;4396952;32;20376;-50
2021/01/22 01:23:12;;;;;;;;;;;;;;;16.79;38.94;97405.00;4396733;32;19961;-48
2021/01/22 01:25:38;;;;;;;;;;;;;;;16.78;39.02;97387.50;4395641;32;19969;-47
2021/01/22 01:28:04;;;;;;;;;;;;;;;16.85;38.85;97399.63;4397063;32;20032;-46
2021/01/22 01:30:30;;;;;;;;;;;;;;;16.79;39.11;97389.22;4396889;32;20002;-49
2021/01/22 01:32:56;;;;;;;;;;;;;;;16.81;39.06;97391.84;4396014;32;19958;-47
2021/01/22 01:35:22;;;;;;;;;;;;;;;16.82;39.01;97397.03;4396428;32;19966;-48
2021/01/22 01:37:47;;;;;;;;;;;;;;;16.79;39.10;97389.22;4395728;32;20414;-48
2021/01/22 01:40:13;;;;;;;;;;;;;;;16.79;38.97;97378.72;4395519;32;19942;-47
2021/01/22 01:42:39;;;;;;;;;;;;;;;16.77;39.13;97377.00;4397439;32;20520;-47
2021/01/22 01:45:05;;;;;;;;;;;;;;;16.78;39.14;97381.38;4397635;32;19969;-47
2021/01/22 01:47:31;;;;;;;;;;;;;;;16.81;39.08;97386.59;4403975;32;19961;-46
2021/01/22 01:49:57;;;;;;;;;;;;;;;16.78;39.19;97384.88;4403361;32;19954;-51
2021/01/22 01:52:23;;;;;;;;;;;;;;;16.78;39.18;97381.38;4403737;32;20410;-48
2021/01/22 01:54:49;;;;;;;;;;;;;;;16.80;39.09;97375.19;4403972;32;19955;-46
2021/01/22 01:57:15;;;;;;;;;;;;;;;16.78;39.17;97371.75;4404093;32;19978;-46
2021/01/22 01:59:40;;;;;;;;;;;;;;;16.79;39.15;97367.34;4403933;32;19986;-50
2021/01/22 02:02:06;;;;;;;;;;;;;;;16.79;39.22;97368.22;4410053;32;19954;-51
2021/01/22 02:04:32;;;;;;;;;;;;;;;16.79;39.17;97368.22;4418644;32;19938;-50
2021/01/22 02:06:58;;;;;;;;;;;;;;;16.79;39.17;97376.09;4411641;32;19980;-47
2021/01/22 02:09:24;;;;;;;;;;;;;;;16.79;39.21;97365.59;4387657;32;20018;-47
2021/01/22 02:11:50;;;;;;;;;;;;;;;16.81;39.14;97366.41;4391356;32;19950;-48
2021/01/22 02:14:16;;;;;;;;;;;;;;;16.79;39.17;97372.59;4402819;32;19938;-47
2021/01/22 02:16:41;;;;;;;;;;;;;;;16.81;39.04;97370.81;4401534;32;19963;-49
2021/01/22 02:19:07;;;;;;;;;;;;;;;16.80;39.15;97369.94;4403524;32;20002;-51
2021/01/22 02:21:33;;;;;;;;;;;;;;;16.79;39.16;97370.84;4404039;32;19939;-48
2021/01/22 02:23:59;;;;;;;;;;;;;;;16.80;39.12;97369.94;4403748;32;20372;-48
2021/01/22 02:26:25;;;;;;;;;;;;;;;16.84;39.11;97366.34;4403377;32;20260;-47
2021/01/22 02:28:51;;;;;;;;;;;;;;;16.85;39.16;97373.34;4403465;32;20350;-50
2021/01/22 02:31:17;;;;;;;;;;;;;;;16.82;39.20;97369.91;4403092;32;19965;-53
2021/01/22 02:33:43;;;;;;;;;;;;;;;16.86;39.05;97364.56;4418445;32;19958;-48
2021/01/22 02:36:09;;;;;;;;;;;;;;;16.80;39.22;97374.34;4417807;32;20335;-49
2021/01/22 02:38:34;;;;;;;;;;;;;;;16.79;39.35;97365.59;4403891;32;20006;-48
2021/01/22 02:41:00;;;;;;;;;;;;;;;16.79;39.30;97368.22;4403983;32;19942;-48
2021/01/22 02:43:26;;;;;;;;;;;;;;;16.79;39.29;97369.97;4402707;32;20018;-48
2021/01/22 02:45:52;;;;;;;;;;;;;;;16.77;39.39;97366.50;4404120;32;19961;-48
2021/01/22 02:48:18;;;;;;;;;;;;;;;16.78;39.30;97370.84;4403294;32;19946;-49
2021/01/22 02:50:47;;;;;;;;;;;;;;;16.78;39.23;97377.00;4401779;32;19955;-47
2021/01/22 02:53:13;;;;;;;;;;;;;;;16.83;39.25;97369.88;4402326;32;19998;-52
2021/01/22 02:55:38;;;;;;;;;;;;;;;16.86;39.22;97385.59;4403922;32;19965;-48
2021/01/22 02:58:04;;;;;;;;;;;;;;;16.82;39.20;97383.91;4403095;32;19977;-48
2021/01/22 03:00:30;;;;;;;;;;;;;;;16.81;39.31;97390.06;4402311;32;20342;-50
2021/01/22 03:02:56;;;;;;;;;;;;;;;16.77;39.35;97383.16;4409234;32;20345;-50
2021/01/22 03:05:22;;;;;;;;;;;;;;;16.79;39.44;97378.72;4417782;32;20049;-49
2021/01/22 03:07:48;;;;;;;;;;;;;;;16.92;39.10;97381.97;4410807;32;20286;-50
2021/01/22 03:10:14;;;;;;;;;;;;;;;16.82;39.27;97393.56;4402489;32;19977;-48
2021/01/22 03:12:40;;;;;;;;;;;;;;;16.78;39.38;97371.75;4402797;32;19958;-49
2021/01/22 03:15:06;;;;;;;;;;;;;;;16.82;39.27;97372.53;4403047;32;19935;-47
2021/01/22 03:17:32;;;;;;;;;;;;;;;16.81;39.44;97371.66;4400074;32;20388;-53
2021/01/22 03:19:58;;;;;;;;;;;;;;;16.83;39.22;97384.78;4403281;32;19989;-50
2021/01/22 03:22:23;;;;;;;;;;;;;;;16.82;39.28;97372.53;4402430;32;19956;-48
2021/01/22 03:24:49;;;;;;;;;;;;;;;16.79;39.42;97373.47;4402564;32;19963;-50
2021/01/22 03:27:15;;;;;;;;;;;;;;;16.81;39.31;97376.91;4403189;32;19966;-50
2021/01/22 03:29:41;;;;;;;;;;;;;;;16.78;39.43;97379.63;4402384;32;20339;-47
2021/01/22 03:32:07;;;;;;;;;;;;;;;16.80;39.43;97384.84;4403110;32;19946;-47
2021/01/22 03:34:33;;;;;;;;;;;;;;;16.88;39.24;97380.28;4402018;32;19969;-51
2021/01/22 03:36:59;;;;;;;;;;;;;;;16.79;39.51;97383.97;4402779;32;19942;-48
2021/01/22 03:39:25;;;;;;;;;;;;;;;16.93;39.16;97382.81;4401280;32;19950;-49
2021/01/22 03:41:51;;;;;;;;;;;;;;;16.80;39.50;97377.81;4402495;32;20012;-50
2021/01/22 03:44:17;;;;;;;;;;;;;;;16.84;39.37;97376.84;4402914;32;19943;-49
2021/01/22 03:46:43;;;;;;;;;;;;;;;16.81;39.41;97392.69;4402702;32;19961;-47
2021/01/22 03:49:08;;;;;;;;;;;;;;;16.88;39.24;97385.53;4401285;32;19955;-47
2021/01/22 03:51:34;;;;;;;;;;;;;;;16.85;39.33;97381.25;4402614;32;20371;-50
2021/01/22 03:54:00;;;;;;;;;;;;;;;16.81;39.47;97371.66;4403114;32;19999;-52
2021/01/22 03:56:26;;;;;;;;;;;;;;;16.82;39.41;97383.06;4401531;32;19978;-49
2021/01/22 03:58:52;;;;;;;;;;;;;;;16.81;39.43;97382.19;4402733;32;19977;-47
2021/01/22 04:01:18;;;;;;;;;;;;;;;16.83;39.28;97390.88;4402361;32;19946;-51
2021/01/22 04:03:44;;;;;;;;;;;;;;;16.78;39.51;97395.37;4405820;32;20327;-53
2021/01/22 04:06:10;;;;;;;;;;;;;;;16.79;39.42;97386.59;4401393;32;19954;-53
2021/01/22 04:08:36;;;;;;;;;;;;;;;16.82;39.40;97380.44;4402359;32;19950;-48
2021/01/22 04:11:02;;;;;;;;;;;;;;;16.79;39.43;97394.50;4401712;32;20263;-47
2021/01/22 04:13:27;;;;;;;;;;;;;;;16.80;39.44;97388.34;4401298;32;20210;-47
2021/01/22 04:15:53;;;;;;;;;;;;;;;16.79;39.45;97383.97;4405277;32;19976;-48
2021/01/22 04:18:19;;;;;;;;;;;;;;;16.84;39.42;97382.09;4405752;32;19969;-46
2021/01/22 04:20:45;;;;;;;;;;;;;;;16.82;39.45;97389.16;4404834;32;19954;-51
2021/01/22 04:23:11;;;;;;;;;;;;;;;16.85;39.35;97386.50;4404930;32;19939;-50
2021/01/22 04:25:37;;;;;;;;;;;;;;;16.91;39.31;97388.09;4405821;32;19954;-48
2021/01/22 04:28:03;;;;;;;;;;;;;;;16.86;39.42;97382.97;4405962;32;20294;-48
2021/01/22 04:30:29;;;;;;;;;;;;;;;16.86;39.28;97375.09;4405212;32;19954;-50
2021/01/22 04:32:54;;;;;;;;;;;;;;;16.85;39.59;97378.63;4410578;32;20007;-47
2021/01/22 04:35:21;;;;;;;;;;;;;;;16.82;39.47;97372.53;4406490;32;20007;-50
2021/01/22 04:37:47;;;;;;;;;;;;;;;16.78;39.52;97365.59;4414594;32;19958;-49
2021/01/22 04:40:12;;;;;;;;;;;;;;;16.80;39.63;97364.69;4407194;32;19992;-48
2021/01/22 04:42:38;;;;;;;;;;;;;;;16.76;39.90;97368.28;4405376;32;19969;-48
2021/01/22 04:45:04;;;;;;;;;;;;;;;16.66;40.17;97364.09;4404950;32;20015;-53
2021/01/22 04:47:30;;;;;;;;;;;;;;;16.65;40.16;97362.38;4405120;32;19961;-52
2021/01/22 04:49:56;;;;;;;;;;;;;;;16.63;40.21;97361.56;4403978;32;20294;-49
2021/01/22 04:52:22;;;;;;;;;;;;;;;16.62;40.26;97359.81;4404648;32;19949;-49
2021/01/22 04:54:48;;;;;;;;;;;;;;;16.58;40.43;97364.25;4404637;32;20386;-50
2021/01/22 04:57:14;;;;;;;;;;;;;;;16.49;40.61;97367.94;4405308;32;20052;-47
2021/01/22 04:59:40;;;;;;;;;;;;;;;16.65;40.27;97354.50;4404308;32;20013;-52
2021/01/22 05:02:05;;;;;;;;;;;;;;;16.52;40.59;97354.75;4404523;32;19962;-50
2021/01/22 05:04:31;;;;;;;;;;;;;;;16.54;40.43;97358.19;4404646;32;19950;-47
2021/01/22 05:06:57;;;;;;;;;;;;;;;16.62;40.10;97357.19;4404011;32;19981;-48
2021/01/22 05:09:23;;;;;;;;;;;;;;;16.69;40.07;97348.28;4404461;32;20065;-47
2021/01/22 05:11:49;;;;;;;;;;;;;;;16.77;39.83;97353.38;4395758;32;20299;-51
2021/01/22 05:14:15;;;;;;;;;;;;;;;16.84;39.66;97353.19;4398618;32;20017;-47
2021/01/22 05:16:41;;;;;;;;;;;;;;;16.84;39.55;97353.19;4405251;32;19966;-50
2021/01/22 05:19:06;;;;;;;;;;;;;;;16.84;39.67;97354.97;4404375;32;20259;-47
2021/01/22 05:21:32;;;;;;;;;;;;;;;16.82;39.70;97355.00;4396419;32;19958;-50
2021/01/22 05:23:58;;;;;;;;;;;;;;;16.74;39.89;97354.31;4396246;32;20327;-47
2021/01/22 05:26:24;;;;;;;;;;;;;;;16.74;39.92;97341.19;4396124;32;19954;-49
2021/01/22 05:28:50;;;;;;;;;;;;;;;16.68;40.06;97351.78;4402262;32;20001;-47
2021/01/22 05:31:16;;;;;;;;;;;;;;;16.65;40.16;97354.50;4407301;32;19962;-49
2021/01/22 05:33:42;;;;;;;;;;;;;;;16.62;40.29;97354.56;4419825;32;19938;-48
2021/01/22 05:36:08;;;;;;;;;;;;;;;16.72;39.93;97349.06;4405839;32;19961;-52
2021/01/22 05:38:34;;;;;;;;;;;;;;;16.89;39.62;97353.09;4403910;32;19947;-50
2021/01/22 05:40:59;;;;;;;;;;;;;;;16.88;39.68;97351.38;4409010;32;20006;-47
2021/01/22 05:43:25;;;;;;;;;;;;;;;16.81;39.79;97355.91;4397492;32;19985;-47
2021/01/22 05:45:51;;;;;;;;;;;;;;;16.89;39.53;97347.84;4396434;32;19943;-48
2021/01/22 05:48:17;;;;;;;;;;;;;;;16.95;39.32;97341.59;4395477;32;19996;-49
2021/01/22 05:50:43;;;;;;;;;;;;;;;17.00;39.31;97350.28;4397066;32;19973;-51
2021/01/22 05:53:09;;;;;;;;;;;;;;;16.98;39.21;97355.53;4396942;32;19951;-47
2021/01/22 05:55:35;;;;;;;;;;;;;;;16.95;39.36;97357.38;4399192;32;19996;-50
2021/01/22 05:58:01;;;;;;;;;;;;;;;17.02;39.27;97359.00;4397254;32;19965;-50
2021/01/22 06:00:27;;;;;;;;;;;;;;;16.99;39.27;97357.31;4396699;32;19942;-47
2021/01/22 06:02:53;;;;;;;;;;;;;;;17.02;39.32;97356.37;4397770;32;20349;-49
2021/01/22 06:05:22;;;;;;;;;;;;;;;16.94;39.53;97360.91;4397309;32;19943;-46
2021/01/22 06:07:48;;;;;;;;;;;;;;;16.89;39.66;97355.72;4396109;32;19955;-48
2021/01/22 06:10:14;;;;;;;;;;;;;;;17.03;39.22;97366.00;4396587;32;19972;-48
2021/01/22 06:12:40;;;;;;;;;;;;;;;17.03;39.34;97366.00;4393581;32;19958;-47
2021/01/22 06:15:06;;;;;;;;;;;;;;;16.93;39.59;97367.94;4393828;32;19947;-47
2021/01/22 06:17:32;;;;;;;;;;;;;;;17.04;39.41;97378.25;4396095;32;19969;-47
2021/01/22 06:19:58;;;;;;;;;;;;;;;16.97;39.52;97371.34;4394285;32;20311;-48
2021/01/22 06:22:23;;;;;;;;;;;;;;;16.92;39.82;97381.09;4392614;32;19958;-48
2021/01/22 06:24:49;;;;;;;;;;;;;;;16.97;39.64;97385.34;4392087;32;19977;-48
2021/01/22 06:27:15;;;;;;;;;;;;;;;16.94;39.72;97398.56;4388170;32;20438;-47
2021/01/22 06:29:41;;;;;;;;;;;;;;;16.96;39.64;97427.44;4388122;32;19969;-47
2021/01/22 06:32:07;;;;;;;;;;;;;;;16.99;39.56;97437.91;4387581;32;19985;-46
2021/01/22 06:34:33;;;;;;;;;;;;;;;16.95;39.57;97462.50;4387385;32;19992;-54
2021/01/22 06:37:00;;;;;;;;;;;;;;;16.97;39.56;97452.81;4386764;32;19943;-48
2021/01/22 06:39:25;;;;;;;;;;;;;;;16.93;39.73;97474.81;4387312;32;19988;-49
2021/01/22 06:41:51;;;;;;;;;;;;;;;16.90;39.77;97456.50;4387929;32;19970;-50
2021/01/22 06:44:17;;;;;;;;;;;;;;;16.85;39.95;97460.09;4387472;32;19958;-50
2021/01/22 06:46:43;;;;;;;;;;;;;;;16.96;39.69;97472.13;4388653;32;19939;-46
2021/01/22 06:49:09;;;;;;;;;;;;;;;16.95;39.68;97483.53;4386621;32;19970;-49
2021/01/22 06:51:35;;;;;;;;;;;;;;;17.00;39.51;97484.38;4387023;32;19962;-51
2021/01/22 06:54:01;;;;;;;;;;;;;;;17.00;39.40;97471.22;4387979;32;19962;-52
2021/01/22 06:56:27;;;;;;;;;;;;;;;17.03;39.27;97481.66;4387159;32;19973;-47
2021/01/22 06:58:53;;;;;;;;;;;;;;;17.05;39.39;97477.25;4387860;32;19962;-51
2021/01/22 07:01:18;;;;;;;;;;;;;;;17.04;39.32;97483.41;4387106;32;19992;-48
2021/01/22 07:03:44;;;;;;;;;;;;;;;17.04;39.30;97483.41;4387167;32;19953;-51
2021/01/22 07:06:10;;;;;;;;;;;;;;;17.04;39.42;97493.91;4382995;32;19966;-46
2021/01/22 07:08:36;;;;;;;;;;;;;;;16.99;39.45;97491.38;4387228;32;19951;-47
2021/01/22 07:11:02;;;;;;;;;;;;;;;17.04;39.36;97493.91;4387178;32;19947;-47
2021/01/22 07:13:28;;;;;;;;;;;;;;;17.02;39.42;97506.22;4382707;32;19983;-50
2021/01/22 07:15:54;;;;;;;;;;;;;;;17.03;39.41;97507.97;4385576;32;19954;-54
2021/01/22 07:18:20;;;;;;;;;;;;;;;17.04;39.30;97514.94;4383858;32;19969;-52
2021/01/22 07:20:46;;;;;;;;;;;;;;;17.03;39.31;97513.22;4383069;32;19961;-50
2021/01/22 07:23:12;;;;;;;;;;;;;;;16.99;39.46;97522.03;4384414;32;19954;-50
2021/01/22 07:25:38;;;;;;;;;;;;;;;17.03;39.35;97529.00;4384746;32;20006;-50
2021/01/22 07:28:04;;;;;;;;;;;;;;;16.99;39.42;97535.19;4383385;32;19950;-49
2021/01/22 07:30:30;;;;;;;;;;;;;;;16.99;39.29;97538.69;4383265;32;19966;-53
2021/01/22 07:32:56;;;;;;;;;;;;;;;17.02;39.25;97531.63;4383762;32;19974;-49
2021/01/22 07:35:22;;;;;;;;;;;;;;;17.00;39.34;97539.56;4383538;32;19947;-49
2021/01/22 07:37:48;;;;;;;;;;;;;;;17.02;39.33;97539.53;4385122;32;19959;-47
2021/01/22 07:40:14;;;;;;;;;;;;;;;17.00;39.34;97539.56;4384833;32;20013;-47
2021/01/22 07:42:40;;;;;;;;;;;;;;;17.01;39.32;97541.31;4383416;32;19954;-53
2021/01/22 07:45:06;;;;;;;;;;;;;;;17.04;39.23;97545.63;4384197;32;19974;-51
2021/01/22 07:47:32;;;;;;;;;;;;;;;16.69;40.20;97550.59;4377591;32;19962;-55
2021/01/22 07:49:58;;;;;;;;;;;;;;;16.85;39.68;97541.56;4370762;32;19982;-55
2021/01/22 07:52:24;;;;;;;;;;;;;;;16.85;39.75;97554.72;4378029;32;19965;-48
2021/01/22 07:54:50;;;;;;;;;;;;;;;16.77;39.95;97560.97;4387698;32;19970;-53
2021/01/22 07:57:16;;;;;;;;;;;;;;;16.62;40.37;97565.59;4385281;32;19966;-49
2021/01/22 07:59:41;;;;;;;;;;;;;;;16.64;40.11;97570.84;4386040;32;19958;-47
2021/01/22 08:02:07;;;;;;;;;;;;;;;16.66;40.01;97571.69;4386697;32;19995;-48
2021/01/22 08:04:35;;;;;;;;;;;;;;;16.70;39.98;97575.97;4386036;32;20319;-53
2021/01/22 08:07:02;;;;;;;;;;;;;;;16.73;40.00;97578.59;4377017;32;19970;-53
2021/01/22 08:09:28;;;;;;;;;;;;;;;16.68;39.97;97585.66;4373028;32;20035;-51
2021/01/22 08:11:54;;;;;;;;;;;;;;;16.66;40.08;97590.06;4374229;32;19993;-48
2021/01/22 08:14:20;;;;;;;;;;;;;;;16.72;39.88;97587.31;4402367;32;19954;-49
2021/01/22 08:16:46;;;;;;;;;;;;;;;16.73;39.95;97591.72;4401191;32;19942;-47
2021/01/22 08:19:12;;;;;;;;;;;;;;;16.66;40.02;97590.94;4400671;32;19986;-52
2021/01/22 08:21:38;;;;;;;;;;;;;;;16.57;40.22;97605.09;4403751;32;20009;-50
2021/01/22 08:24:04;;;;;;;;;;;;;;;16.67;40.19;97604.94;4382554;32;19948;-53
2021/01/22 08:26:30;;;;;;;;;;;;;;;16.62;40.10;97612.06;4370887;32;19970;-54
2021/01/22 08:28:56;;;;;;;;;;;;;;;16.71;39.80;97612.75;4394440;32;19965;-53
2021/01/22 08:31:22;;;;;;;;;;;;;;;16.72;40.12;97613.59;4402467;32;19950;-52
2021/01/22 08:33:48;;;;;;;;;;;;;;;16.80;39.71;97616.13;4392734;32;19992;-51
2021/01/22 08:36:14;;;;;;;;;;;;;;;16.81;39.67;97623.13;4383805;32;19988;-48
2021/01/22 08:38:40;;;;;;;;;;;;;;;16.94;39.26;97623.75;4375897;32;19978;-49
2021/01/22 08:41:06;;;;;;;;;;;;;;;16.93;39.21;97628.19;4373113;32;19943;-47
2021/01/22 08:43:32;;;;;;;;;;;;;;;16.92;39.39;97626.44;4388550;32;19966;-47
2021/01/22 08:45:58;;;;;;;;;;;;;;;16.90;39.42;97635.25;4402442;32;19954;-47
2021/01/22 08:48:24;;;;;;;;;;;;;;;16.85;39.41;97641.44;4388265;32;19948;-50
2021/01/22 08:50:50;;;;;;;;;;;;;;;16.92;39.14;97641.31;4381963;32;19946;-50
2021/01/22 08:53:16;;;;;;;;;;;;;;;16.85;39.42;97649.34;4390756;32;19982;-47
2021/01/22 08:55:42;;;;;;;;;;;;;;;16.82;39.39;97651.13;4396060;32;19962;-53
2021/01/22 08:58:09;;;;;;;;;;;;;;;16.92;39.17;97649.22;4388333;32;19963;-48
2021/01/22 09:00:36;;;;;;;;;;;;;;;16.87;39.29;97654.53;4375195;32;20367;-49
2021/01/22 09:03:02;;;;;;;;;;;;;;;16.75;39.58;97663.50;4378683;32;19958;-51
2021/01/22 09:05:28;;;;;;;;;;;;;;;16.76;39.53;97673.12;4402965;32;19989;-52
2021/01/22 09:07:55;;;;;;;;;;;;;;;16.66;40.11;97676.78;4401278;32;20428;-52
2021/01/22 09:10:21;;;;;;;;;;;;;;;16.72;39.79;97692.44;4401850;32;19951;-53
2021/01/22 09:12:47;;;;;;;;;;;;;;;16.82;39.65;97688.78;4403198;32;19984;-54
2021/01/22 09:15:13;;;;;;;;;;;;;;;16.76;39.88;97698.53;4371520;32;19951;-53
2021/01/22 09:17:39;;;;;;;;;;;;;;;16.67;39.83;97699.53;4372229;32;19951;-50
2021/01/22 09:20:05;;;;;;;;;;;;;;;16.63;40.06;97697.88;4399056;32;20020;-49
2021/01/22 09:22:31;;;;;;;;;;;;;;;16.57;40.18;97710.19;4400402;32;19958;-50
2021/01/22 09:24:57;;;;;;;;;;;;;;;16.52;40.18;97714.66;4376833;32;19961;-50
2021/01/22 09:27:23;;;;;;;;;;;;;;;16.65;39.64;97723.19;4372475;32;20405;-48
2021/01/22 09:29:49;;;;;;;;;;;;;;;16.77;39.52;97724.81;4394283;32;19984;-46
2021/01/22 09:32:15;;;;;;;;;;;;;;;16.78;39.38;97729.16;4402328;32;20006;-47
2021/01/22 09:34:41;;;;;;;;;;;;;;;16.80;39.36;97727.38;4393203;32;20379;-47
2021/01/22 09:37:07;;;;;;;;;;;;;;;16.88;39.26;97743.03;4386501;32;19958;-48
2021/01/22 09:39:33;;;;;;;;;;;;;;;16.80;39.47;97737.03;4380362;32;19985;-50
2021/01/22 09:41:59;;;;;;;;;;;;;;;16.80;39.50;97737.87;4372947;32;19958;-46
2021/01/22 09:44:25;;;;;;;;;;;;;;;16.77;39.54;97748.44;4386067;32;20335;-48
2021/01/22 09:46:51;;;;;;;;;;;;;;;16.81;39.22;97739.63;4389996;32;20041;-51
2021/01/22 09:49:17;;;;;;;;;;;;;;;16.78;39.35;97749.31;4392115;32;19972;-50
2021/01/22 09:51:43;;;;;;;;;;;;;;;16.74;39.33;97753.75;4401491;32;20069;-49
2021/01/22 09:54:12;;;;;;;;;;;;;;;16.75;39.41;97755.50;4398222;32;19966;-50
2021/01/22 09:56:38;;;;;;;;;;;;;;;16.80;39.29;97755.44;4402520;32;19973;-49
2021/01/22 09:59:05;;;;;;;;;;;;;;;16.89;39.02;97762.31;4398786;32;19955;-47
2021/01/22 10:01:31;;;;;;;;;;;;;;;16.89;38.99;97764.94;4391275;32;19962;-51
2021/01/22 10:03:57;;;;;;;;;;;;;;;16.90;39.02;97764.91;4402793;32;19984;-48
2021/01/22 10:06:23;;;;;;;;;;;;;;;16.91;39.08;97771.03;4401163;32;20033;-46
2021/01/22 10:08:49;;;;;;;;;;;;;;;16.91;38.97;97771.88;4388594;32;19977;-49
2021/01/22 10:11:15;;;;;;;;;;;;;;;16.89;39.15;97773.66;4392691;32;20008;-50
2021/01/22 10:13:41;;;;;;;;;;;;;;;16.82;39.27;97777.31;4378484;32;20006;-51
2021/01/22 10:16:07;;;;;;;;;;;;;;;16.77;39.36;97772.09;4379896;32;19956;-46
2021/01/22 10:18:33;;;;;;;;;;;;;;;16.82;39.17;97766.78;4378412;32;20004;-52
2021/01/22 10:20:59;;;;;;;;;;;;;;;16.88;38.99;97768.47;4383323;32;20418;-48
2021/01/22 10:23:25;;;;;;;;;;;;;;;16.79;39.27;97761.56;4379746;32;19951;-48
2021/01/22 10:25:51;;;;;;;;;;;;;;;16.87;39.04;97767.56;4382030;32;19943;-47
2021/01/22 10:28:17;;;;;;;;;;;;;;;16.86;39.18;97774.59;4379356;32;19962;-47
2021/01/22 10:30:43;;;;;;;;;;;;;;;16.81;39.35;97776.41;4380843;32;19951;-49
2021/01/22 10:33:09;;;;;;;;;;;;;;;16.73;39.50;97783.56;4380616;32;20326;-49
2021/01/22 10:35:35;;;;;;;;;;;;;;;16.76;39.47;97780.88;4381844;32;20007;-45
2021/01/22 10:38:01;;;;;;;;;;;;;;;16.62;39.92;97777.59;4371722;32;19990;-49
2021/01/22 10:40:28;;;;;;;;;;;;;;;16.53;40.02;97776.81;4379532;32;20108;-46
2021/01/22 10:42:54;;;;;;;;;;;;;;;16.43;40.25;97769.94;4382738;32;20303;-46
2021/01/22 10:45:20;;;;;;;;;;;;;;;16.55;39.95;97772.41;4381291;32;19995;-47
2021/01/22 10:47:46;;;;;;;;;;;;;;;16.68;39.67;97769.59;4403558;32;19942;-48
2021/01/22 10:50:12;;;;;;;;;;;;;;;16.65;39.70;97785.41;4394815;32;20048;-52
2021/01/22 10:52:38;;;;;;;;;;;;;;;16.58;39.85;97779.38;4387409;32;19988;-47
2021/01/22 10:55:03;;;;;;;;;;;;;;;16.57;39.84;97791.63;4386373;32;20485;-47
2021/01/22 10:57:29;;;;;;;;;;;;;;;16.68;39.58;97795.88;4388123;32;19951;-49
2021/01/22 10:59:55;;;;;;;;;;;;;;;16.72;39.39;97797.56;4387540;32;19944;-47
2021/01/22 11:02:21;;;;;;;;;;;;;;;16.71;39.38;97791.47;4393319;32;19958;-49
2021/01/22 11:04:47;;;;;;;;;;;;;;;16.76;39.36;97786.12;4403420;32;19951;-50
2021/01/22 11:07:13;;;;;;;;;;;;;;;16.78;39.22;97786.09;4395658;32;20343;-48
2021/01/22 11:09:39;;;;;;;;;;;;;;;16.82;39.23;97791.28;4394293;32;19951;-48
2021/01/22 11:12:05;;;;;;;;;;;;;;;16.87;39.11;97791.22;4394569;32;19991;-50
2021/01/22 11:14:31;;;;;;;;;;;;;;;16.88;39.10;97787.72;4397887;32;19969;-48
2021/01/22 11:16:56;;;;;;;;;;;;;;;16.85;39.15;97783.37;4395850;32;19977;-47
2021/01/22 11:19:22;;;;;;;;;;;;;;;16.85;39.06;97782.50;4394791;32;20027;-50
2021/01/22 11:21:48;;;;;;;;;;;;;;;16.89;39.00;97785.97;4394811;32;19988;-46
2021/01/22 11:24:14;;;;;;;;;;;;;;;16.88;39.05;97800.00;4394405;32;19966;-47
2021/01/22 11:26:40;;;;;;;;;;;;;;;16.91;39.04;97810.47;4395521;32;19950;-49
2021/01/22 11:29:06;;;;;;;;;;;;;;;16.90;38.91;97817.47;4390239;32;19950;-48
2021/01/22 11:31:32;;;;;;;;;;;;;;;16.93;38.94;97816.56;4401724;32;19972;-48
2021/01/22 11:33:58;;;;;;;;;;;;;;;16.94;38.92;97827.06;4411817;32;19953;-46
2021/01/22 11:36:24;;;;;;;;;;;;;;;16.92;38.87;97825.34;4405647;32;19958;-46
2021/01/22 11:38:50;;;;;;;;;;;;;;;16.87;39.01;97822.78;4412209;32;19959;-45
2021/01/22 11:41:15;;;;;;;;;;;;;;;16.89;39.00;97825.41;4406650;32;19955;-48
2021/01/22 11:43:41;;;;;;;;;;;;;;;16.91;39.06;97818.34;4400018;32;19977;-48
2021/01/22 11:46:07;;;;;;;;;;;;;;;16.90;39.00;97821.87;4398425;32;20012;-51
2021/01/22 11:48:33;;;;;;;;;;;;;;;16.91;39.03;97831.50;4394368;32;19965;-50
2021/01/22 11:50:59;;;;;;;;;;;;;;;16.98;38.82;97841.03;4400627;32;19987;-51
2021/01/22 11:53:26;;;;;;;;;;;;;;;16.85;39.03;97835.97;4399530;32;19969;-50
2021/01/22 11:55:52;;;;;;;;;;;;;;;16.92;38.95;97835.84;4400147;32;19976;-50
2021/01/22 11:58:18;;;;;;;;;;;;;;;16.84;39.11;97838.59;4399385;32;19994;-49
2021/01/22 12:00:44;;;;;;;;;;;;;;;16.81;39.33;97838.66;4398654;32;19958;-47
2021/01/22 12:03:12;;;;;;;;;;;;;;;16.76;39.39;97825.56;4400273;32;19969;-46
2021/01/22 12:05:38;;;;;;;;;;;;;;;16.78;39.34;97834.28;4400387;32;20491;-54
2021/01/22 12:08:04;;;;;;;;;;;;;;;16.69;39.60;97821.25;4408084;32;19970;-50
2021/01/22 12:10:30;;;;;;;;;;;;;;;16.80;39.33;97822.00;4410044;32;20267;-47
2021/01/22 12:12:56;;;;;;;;;;;;;;;16.86;39.20;97819.28;4398777;32;19946;-46
2021/01/22 12:15:22;;;;;;;;;;;;;;;16.86;39.25;97821.03;4399146;32;20002;-48
2021/01/22 12:17:48;;;;;;;;;;;;;;;16.93;39.02;97814.81;4398348;32;19962;-47
2021/01/22 12:20:14;;;;;;;;;;;;;;;16.95;38.98;97815.66;4398770;32;20365;-47
2021/01/22 12:22:40;;;;;;;;;;;;;;;16.82;39.26;97814.09;4399742;32;20627;-46
2021/01/22 12:25:06;;;;;;;;;;;;;;;16.89;39.17;97799.09;4396555;32;19965;-48
2021/01/22 12:27:32;;;;;;;;;;;;;;;16.86;39.18;97803.53;4399646;32;19979;-50
2021/01/22 12:29:58;;;;;;;;;;;;;;;16.72;39.48;97787.06;4399051;32;20012;-50
2021/01/22 12:32:24;;;;;;;;;;;;;;;16.70;39.54;97783.59;4398061;32;19954;-49
2021/01/22 12:34:52;;;;;;;;;;;;;;;16.82;39.29;97778.16;4399800;32;19954;-52
2021/01/22 12:37:18;;;;;;;;;;;;;;;16.83;39.21;97774.63;4405718;32;19973;-48
2021/01/22 12:39:44;;;;;;;;;;;;;;;16.85;39.21;97764.09;4415488;32;19954;-51